Time;durP1;ratioP1;P1;durP2;ratioP2;P2;SDS_P1;SDS_P2;PMS_P1;PMS_P2;Temp;Humidity;BMP_temperature;BMP_pressure;BME280_temperature;BME280_humidity;BME280_pressure;Samples;Min_cycle;Max_cycle;Signal;HPM_P1;HPM_P2
2022/06/25 00:00:29;;;;;;;1.67;1.03;;;16.50;99.90;;;;;;4987847;28;20466;-74
2022/06/25 00:02:55;;;;;;;1.13;1.03;;;16.40;99.90;;;;;;4989157;28;20191;-75
2022/06/25 00:05:29;;;;;;;1.70;1.00;;;16.40;99.90;;;;;;4987743;28;20210;-75
2022/06/25 00:07:56;;;;;;;1.77;1.07;;;16.40;99.90;;;;;;4989483;28;20586;-76
2022/06/25 00:10:23;;;;;;;2.60;1.10;;;16.40;99.90;;;;;;4971665;28;20438;-75
2022/06/25 00:12:49;;;;;;;3.33;0.80;;;16.40;99.90;;;;;;5003823;28;20492;-74
2022/06/25 00:15:14;;;;;;;1.03;0.90;;;16.40;99.90;;;;;;4989112;28;20806;-74
2022/06/25 00:17:40;;;;;;;2.37;1.30;;;16.40;99.90;;;;;;4987769;28;20484;-74
2022/06/25 00:20:07;;;;;;;1.33;1.00;;;16.30;99.90;;;;;;4989174;28;20189;-75
2022/06/25 00:22:33;;;;;;;1.03;0.97;;;16.40;99.90;;;;;;4989074;28;20188;-75
2022/06/25 00:24:58;;;;;;;3.63;0.93;;;16.30;99.90;;;;;;5004132;28;20453;-75
2022/06/25 00:27:24;;;;;;;2.60;1.20;;;16.30;99.90;;;;;;4989203;28;20736;-76
2022/06/25 00:29:50;;;;;;;3.27;1.00;;;16.30;99.90;;;;;;4989135;28;20645;-75
2022/06/25 00:32:16;;;;;;;1.10;0.80;;;16.20;99.90;;;;;;4990188;28;20429;-75
2022/06/25 00:34:42;;;;;;;1.00;0.90;;;16.10;99.90;;;;;;4992872;28;20761;-75
2022/06/25 00:37:08;;;;;;;0.80;0.77;;;16.30;99.90;;;;;;4993011;28;20477;-75
2022/06/25 00:39:35;;;;;;;4.43;0.80;;;16.30;99.90;;;;;;4993206;28;20191;-75
2022/06/25 00:42:01;;;;;;;2.20;1.20;;;16.20;99.90;;;;;;4993057;28;20426;-75
2022/06/25 00:44:30;;;;;;;3.30;1.20;;;16.10;99.90;;;;;;4993142;28;20515;-74
2022/06/25 00:46:57;;;;;;;1.27;1.17;;;16.10;99.90;;;;;;4993237;28;20429;-75
2022/06/25 00:49:22;;;;;;;4.93;1.27;;;16.00;99.90;;;;;;4991698;28;20461;-75
2022/06/25 00:51:50;;;;;;;1.80;0.93;;;16.00;99.90;;;;;;4993068;28;20569;-75
2022/06/25 00:54:17;;;;;;;1.40;1.10;;;16.10;99.90;;;;;;4992800;28;20226;-76
2022/06/25 00:56:51;;;;;;;1.60;0.87;;;16.10;99.90;;;;;;4992677;28;20604;-77
2022/06/25 00:59:26;;;;;;;1.10;1.00;;;16.10;99.90;;;;;;4991480;28;20429;-77
2022/06/25 01:01:51;;;;;;;1.77;1.10;;;16.10;99.90;;;;;;4992573;28;20433;-76
2022/06/25 01:04:17;;;;;;;1.30;1.03;;;16.00;99.90;;;;;;4990945;28;20434;-75
2022/06/25 01:06:43;;;;;;;2.10;0.83;;;16.10;99.90;;;;;;4992582;28;20198;-76
2022/06/25 01:09:09;;;;;;;2.30;0.70;;;16.10;99.90;;;;;;5007706;28;20196;-75
2022/06/25 01:11:35;;;;;;;1.90;0.80;;;16.10;99.90;;;;;;4991451;28;20433;-75
2022/06/25 01:14:09;;;;;;;2.00;1.20;;;16.10;99.90;;;;;;4992658;28;21015;-76
2022/06/25 01:16:36;;;;;;;5.33;0.80;;;16.10;99.90;;;;;;4992792;28;20217;-76
2022/06/25 01:19:07;;;;;;;1.57;0.70;;;16.00;99.90;;;;;;4992897;28;20433;-75
2022/06/25 01:21:33;;;;;;;1.03;0.70;;;16.10;99.90;;;;;;4992744;28;20421;-74
2022/06/25 01:24:00;;;;;;;1.97;1.30;;;16.10;99.90;;;;;;4991487;28;20457;-74
2022/06/25 01:26:26;;;;;;;1.30;0.80;;;16.00;99.90;;;;;;4993017;28;20200;-74
2022/06/25 01:28:52;;;;;;;2.60;0.83;;;15.90;99.90;;;;;;4992951;28;20426;-73
2022/06/25 01:31:17;;;;;;;3.67;1.07;;;16.00;99.90;;;;;;4991745;28;20246;-74
2022/06/25 01:33:43;;;;;;;1.83;0.70;;;15.80;99.90;;;;;;4992933;28;20578;-74
2022/06/25 01:36:08;;;;;;;1.00;0.87;;;15.80;99.90;;;;;;4992705;28;20656;-74
2022/06/25 01:38:34;;;;;;;2.30;0.90;;;15.90;99.90;;;;;;4991527;28;20238;-75
2022/06/25 01:41:00;;;;;;;1.60;0.83;;;15.90;99.90;;;;;;4993293;28;20195;-74
2022/06/25 01:43:25;;;;;;;2.50;1.30;;;15.90;99.90;;;;;;4992180;28;20655;-74
2022/06/25 01:45:52;;;;;;;2.60;1.10;;;15.80;99.90;;;;;;4992087;28;20329;-75
2022/06/25 01:48:17;;;;;;;1.33;0.90;;;15.80;99.90;;;;;;4993746;28;20219;-75
2022/06/25 01:50:43;;;;;;;2.83;0.73;;;15.80;99.90;;;;;;4975331;28;20481;-75
2022/06/25 01:53:09;;;;;;;1.87;1.00;;;15.90;99.90;;;;;;4992531;28;20535;-75
2022/06/25 01:55:35;;;;;;;1.40;0.80;;;15.80;99.90;;;;;;4990082;28;20226;-75
2022/06/25 01:58:01;;;;;;;1.57;0.90;;;15.80;99.90;;;;;;4991553;28;20218;-75
2022/06/25 02:00:29;;;;;;;1.43;0.70;;;15.80;99.90;;;;;;5006616;28;20577;-75
2022/06/25 02:02:56;;;;;;;0.90;0.73;;;15.80;99.90;;;;;;4990425;28;20514;-76
2022/06/25 02:05:56;;;;;;;3.03;0.97;;;15.80;99.90;;;;;;4991305;28;20438;-76
2022/06/25 02:08:10;;;;;;;0.80;0.70;;;15.80;99.90;;;;;;4989995;28;20430;-76
2022/06/25 02:10:37;;;;;;;0.90;0.70;;;15.80;99.90;;;;;;4990989;28;20422;-76
2022/06/25 02:13:03;;;;;;;3.00;0.90;;;15.80;99.90;;;;;;4991035;28;20920;-76
2022/06/25 02:15:28;;;;;;;1.37;0.70;;;15.80;99.90;;;;;;4990859;28;20866;-75
2022/06/25 02:17:54;;;;;;;3.00;0.83;;;15.80;99.90;;;;;;4990936;28;20477;-76
2022/06/25 02:20:21;;;;;;;1.10;0.60;;;15.70;99.90;;;;;;4990958;28;20834;-76
2022/06/25 02:22:47;;;;;;;3.40;0.80;;;15.80;99.90;;;;;;4989718;28;20185;-76
2022/06/25 02:25:13;;;;;;;1.23;0.87;;;15.80;99.90;;;;;;4991271;28;20464;-75
2022/06/25 02:27:39;;;;;;;1.37;0.73;;;15.80;99.90;;;;;;4991348;28;20456;-75
2022/06/25 02:30:05;;;;;;;0.87;0.80;;;15.80;99.90;;;;;;5006223;28;20488;-75
2022/06/25 02:32:31;;;;;;;1.80;0.80;;;15.80;99.90;;;;;;4991162;28;20198;-75
2022/06/25 02:34:57;;;;;;;1.20;0.70;;;15.80;99.90;;;;;;4991025;28;20450;-74
2022/06/25 02:37:22;;;;;;;2.13;0.90;;;15.70;99.90;;;;;;4990911;28;20474;-76
2022/06/25 02:39:48;;;;;;;1.07;0.97;;;15.70;99.90;;;;;;4989898;28;21010;-77
2022/06/25 02:42:14;;;;;;;0.97;0.87;;;15.70;99.90;;;;;;4989794;28;20430;-76
2022/06/25 02:44:39;;;;;;;3.27;0.90;;;15.80;99.90;;;;;;4989553;28;20208;-77
2022/06/25 02:47:05;;;;;;;1.13;0.60;;;15.80;99.90;;;;;;4989327;28;20457;-75
2022/06/25 02:49:30;;;;;;;0.90;0.70;;;15.80;99.90;;;;;;4973467;28;20294;-76
2022/06/25 02:51:56;;;;;;;1.57;0.60;;;15.80;99.90;;;;;;4990879;28;20274;-76
2022/06/25 02:54:22;;;;;;;4.30;0.70;;;15.90;99.90;;;;;;4990225;28;20211;-77
2022/06/25 02:59:32;;;;;;;1.40;0.90;;;15.90;99.90;;;;;;4991106;28;20457;-74
2022/06/25 03:01:58;;;;;;;1.00;0.90;;;16.00;99.90;;;;;;4990904;28;20462;-77
2022/06/25 03:04:24;;;;;;;0.80;0.70;;;15.90;99.90;;;;;;4991011;28;20286;-76
2022/06/25 03:06:51;;;;;;;0.80;0.70;;;15.90;99.90;;;;;;4991121;28;20195;-76
2022/06/25 03:09:16;;;;;;;0.90;0.70;;;15.90;99.90;;;;;;4990996;28;20521;-77
2022/06/25 03:11:42;;;;;;;1.00;0.80;;;15.90;99.90;;;;;;4991240;28;20537;-75
2022/06/25 03:14:08;;;;;;;2.50;0.63;;;15.70;99.90;;;;;;5005930;28;20241;-76
2022/06/25 03:16:34;;;;;;;0.80;0.63;;;15.80;99.90;;;;;;4989724;28;20525;-74
2022/06/25 03:19:01;;;;;;;2.27;0.70;;;15.90;99.90;;;;;;4989370;28;20559;-74
2022/06/25 03:21:28;;;;;;;2.70;0.80;;;15.80;99.90;;;;;;4991677;28;20179;-74
2022/06/25 03:23:53;;;;;;;1.37;0.60;;;15.70;99.90;;;;;;4992429;28;20438;-76
2022/06/25 03:26:19;;;;;;;1.03;0.87;;;15.70;99.90;;;;;;4990554;28;20768;-73
2022/06/25 03:28:44;;;;;;;2.03;1.03;;;15.80;99.90;;;;;;4996099;28;20226;-80
2022/06/25 03:31:10;;;;;;;1.10;0.70;;;15.80;99.90;;;;;;4993313;28;20198;-74
2022/06/25 03:33:36;;;;;;;1.43;0.50;;;15.90;99.90;;;;;;4996172;28;20234;-74
2022/06/25 03:36:02;;;;;;;1.53;0.90;;;15.80;99.90;;;;;;4996893;28;20419;-76
2022/06/25 03:38:28;;;;;;;0.80;0.70;;;15.90;99.90;;;;;;5000659;28;20210;-78
2022/06/25 03:43:37;;;;;;;2.20;0.87;;;15.80;99.90;;;;;;5014498;28;20270;-75
2022/06/25 03:46:04;;;;;;;0.90;0.80;;;15.90;99.90;;;;;;5014237;28;20495;-75
2022/06/25 03:48:29;;;;;;;2.40;0.80;;;15.90;99.90;;;;;;5000082;28;20606;-75
2022/06/25 03:50:55;;;;;;;0.93;0.60;;;15.90;99.90;;;;;;4989821;28;21067;-75
2022/06/25 03:53:21;;;;;;;2.20;0.80;;;15.90;99.90;;;;;;4991387;28;20275;-76
2022/06/25 03:55:46;;;;;;;1.00;0.83;;;15.90;99.90;;;;;;4990471;28;20576;-76
2022/06/25 03:58:12;;;;;;;1.00;0.60;;;16.00;99.90;;;;;;4990802;28;20210;-75
2022/06/25 04:00:37;;;;;;;0.90;0.50;;;16.00;99.90;;;;;;4990418;28;20606;-74
2022/06/25 04:03:03;;;;;;;2.20;0.63;;;16.10;99.90;;;;;;4990378;28;20189;-75
2022/06/25 04:05:30;;;;;;;0.80;0.60;;;16.10;99.90;;;;;;4990176;28;20210;-75
2022/06/25 04:07:55;;;;;;;1.50;0.83;;;16.20;99.90;;;;;;4989969;28;20194;-75
2022/06/25 04:10:21;;;;;;;1.50;0.70;;;16.20;99.90;;;;;;4988797;28;20431;-75
2022/06/25 04:12:46;;;;;;;0.90;0.63;;;16.20;99.90;;;;;;4989900;28;20252;-75
2022/06/25 04:15:12;;;;;;;1.90;0.80;;;16.20;99.90;;;;;;4988444;28;20228;-75
2022/06/25 04:17:38;;;;;;;3.27;0.80;;;16.30;99.90;;;;;;4988398;28;20218;-75
2022/06/25 04:20:04;;;;;;;1.77;0.63;;;16.40;99.90;;;;;;4989969;28;20182;-75
2022/06/25 04:22:30;;;;;;;3.20;0.70;;;16.40;99.90;;;;;;4988343;28;20199;-75
2022/06/25 04:24:55;;;;;;;2.00;0.80;;;16.40;99.90;;;;;;4989766;28;20446;-75
2022/06/25 04:30:06;;;;;;;2.97;1.10;;;16.40;99.90;;;;;;4989878;28;20238;-76
2022/06/25 04:32:32;;;;;;;2.60;0.77;;;16.40;99.90;;;;;;5004617;28;20441;-76
2022/06/25 04:34:57;;;;;;;1.43;0.60;;;16.50;99.90;;;;;;4989684;28;20442;-75
2022/06/25 04:37:23;;;;;;;2.03;0.90;;;16.60;99.90;;;;;;4988294;28;20673;-75
2022/06/25 04:39:48;;;;;;;2.90;0.77;;;16.60;99.90;;;;;;4988371;28;20185;-75
2022/06/25 04:42:14;;;;;;;1.30;1.00;;;16.60;99.90;;;;;;4989543;28;20275;-75
2022/06/25 04:44:40;;;;;;;0.97;0.80;;;16.60;99.90;;;;;;4989356;28;20204;-75
2022/06/25 04:47:05;;;;;;;0.80;0.77;;;16.50;99.90;;;;;;4989961;28;20190;-77
2022/06/25 04:49:31;;;;;;;0.80;0.50;;;16.40;99.90;;;;;;5004828;28;20657;-77
2022/06/25 04:51:56;;;;;;;2.70;1.00;;;16.70;99.90;;;;;;4989265;28;20197;-76
2022/06/25 04:54:22;;;;;;;1.00;0.90;;;16.80;99.90;;;;;;4987625;28;20216;-76
2022/06/25 04:56:48;;;;;;;1.00;0.90;;;16.80;99.90;;;;;;4987698;28;20216;-77
2022/06/25 04:59:16;;;;;;;2.03;1.00;;;16.80;99.90;;;;;;4988978;28;20183;-76
2022/06/25 05:01:42;;;;;;;2.80;0.87;;;17.00;99.90;;;;;;4971757;28;20432;-76
2022/06/25 05:04:08;;;;;;;1.10;0.70;;;17.10;99.90;;;;;;4987484;28;20444;-76
2022/06/25 05:06:33;;;;;;;1.10;0.70;;;17.20;99.90;;;;;;4987586;28;20189;-75
2022/06/25 05:08:59;;;;;;;0.93;0.83;;;17.30;99.90;;;;;;4989089;28;20188;-75
2022/06/25 05:11:25;;;;;;;1.00;0.90;;;17.40;99.90;;;;;;4987595;28;20556;-75
2022/06/25 05:13:50;;;;;;;1.37;1.27;;;17.60;99.90;;;;;;4987463;28;20306;-75
2022/06/25 05:16:17;;;;;;;0.90;0.70;;;17.70;99.90;;;;;;4989421;28;20218;-76
2022/06/25 05:18:43;;;;;;;4.23;0.90;;;17.70;99.90;;;;;;5005745;28;20922;-76
2022/06/25 05:21:09;;;;;;;1.43;0.97;;;17.70;99.90;;;;;;4975233;28;20420;-74
2022/06/25 05:23:34;;;;;;;7.60;0.90;;;17.70;99.90;;;;;;4992580;28;20474;-74
2022/06/25 05:26:00;;;;;;;1.20;0.90;;;17.90;99.90;;;;;;4992751;28;20648;-73
2022/06/25 05:28:25;;;;;;;1.83;1.20;;;17.80;99.90;;;;;;4992623;28;20649;-74
2022/06/25 05:30:51;;;;;;;2.90;1.57;;;17.80;99.90;;;;;;4991075;28;20197;-74
2022/06/25 05:33:17;;;;;;;2.20;1.10;;;17.90;99.90;;;;;;4990992;28;20213;-74
2022/06/25 05:35:42;;;;;;;2.00;1.33;;;17.90;99.90;;;;;;4991012;28;20189;-74
2022/06/25 05:38:09;;;;;;;2.53;0.97;;;17.90;99.90;;;;;;4991285;28;20309;-74
2022/06/25 05:40:35;;;;;;;1.83;0.93;;;18.10;99.90;;;;;;4992795;28;20174;-75
2022/06/25 05:43:01;;;;;;;3.33;1.03;;;18.30;99.90;;;;;;4974262;28;20430;-75
2022/06/25 05:45:26;;;;;;;1.40;1.20;;;18.40;99.90;;;;;;4991619;28;20440;-76
2022/06/25 05:47:52;;;;;;;0.90;0.80;;;18.40;99.90;;;;;;4990055;28;20187;-76
2022/06/25 05:50:17;;;;;;;1.33;0.90;;;18.50;99.90;;;;;;4990174;28;20323;-76
2022/06/25 05:52:43;;;;;;;0.80;0.70;;;18.50;99.90;;;;;;4991408;28;20198;-76
2022/06/25 05:55:09;;;;;;;1.20;0.80;;;18.80;99.90;;;;;;4990099;28;20214;-76
2022/06/25 05:57:34;;;;;;;1.80;0.90;;;18.90;99.90;;;;;;4991562;28;20207;-76
2022/06/25 06:00:01;;;;;;;0.90;0.70;;;19.10;99.90;;;;;;4990180;28;20763;-76
2022/06/25 06:02:26;;;;;;;3.33;0.80;;;19.10;99.90;;;;;;4991519;28;20265;-76
2022/06/25 06:04:55;;;;;;;3.03;0.73;;;19.30;99.90;;;;;;4990082;28;20568;-75
2022/06/25 06:07:21;;;;;;;1.40;1.00;;;19.50;99.90;;;;;;4990248;28;20185;-75
2022/06/25 06:09:47;;;;;;;2.70;0.90;;;19.60;99.90;;;;;;4991591;28;20479;-75
2022/06/25 06:12:13;;;;;;;1.20;1.10;;;19.70;99.90;;;;;;4991576;28;20435;-75
2022/06/25 06:14:39;;;;;;;3.27;1.10;;;19.80;99.90;;;;;;4991400;28;20468;-75
2022/06/25 06:17:05;;;;;;;1.73;0.80;;;20.10;99.90;;;;;;4991271;28;20472;-76
2022/06/25 06:19:30;;;;;;;2.50;0.80;;;20.20;99.90;;;;;;4990005;28;20322;-76
2022/06/25 06:21:56;;;;;;;21.80;6.87;;;20.20;99.90;;;;;;4991233;28;20178;-76
2022/06/25 06:24:22;;;;;;;3.37;1.53;;;20.20;99.90;;;;;;4991391;28;20206;-76
2022/06/25 06:26:47;;;;;;;2.10;1.30;;;20.30;99.90;;;;;;4991099;28;20324;-76
2022/06/25 06:29:13;;;;;;;14.60;1.03;;;20.30;99.90;;;;;;4990248;28;20178;-76
2022/06/25 06:31:39;;;;;;;5.13;2.20;;;20.30;99.90;;;;;;4991970;28;20264;-76
2022/06/25 06:34:04;;;;;;;3.00;1.80;;;20.30;99.90;;;;;;4990162;28;20215;-76
2022/06/25 06:36:31;;;;;;;1.77;1.10;;;20.20;99.90;;;;;;4991662;28;20206;-76
2022/06/25 06:38:56;;;;;;;0.97;0.70;;;20.10;99.90;;;;;;4990208;28;20186;-76
2022/06/25 06:41:22;;;;;;;1.10;1.00;;;20.30;99.90;;;;;;4990358;28;20473;-76
2022/06/25 06:43:48;;;;;;;1.10;0.70;;;20.40;99.90;;;;;;4991480;28;20288;-76
2022/06/25 06:46:14;;;;;;;8.93;3.17;;;20.50;99.90;;;;;;4991207;28;20439;-76
2022/06/25 06:48:41;;;;;;;1.47;1.27;;;20.60;99.90;;;;;;4990930;28;20174;-75
2022/06/25 06:51:06;;;;;;;0.80;0.70;;;20.90;99.90;;;;;;4990885;28;21028;-76
2022/06/25 06:53:33;;;;;;;2.33;0.80;;;21.10;99.90;;;;;;4990591;28;20532;-76
2022/06/25 06:56:00;;;;;;;1.10;0.90;;;21.20;99.90;;;;;;4988865;28;20186;-76
2022/06/25 06:58:26;;;;;;;1.93;1.10;;;21.30;99.90;;;;;;4990506;28;20461;-75
2022/06/25 07:00:52;;;;;;;1.50;0.80;;;21.30;99.90;;;;;;4990395;28;20413;-76
2022/06/25 07:03:17;;;;;;;1.27;0.80;;;21.40;99.90;;;;;;4990732;28;20792;-76
2022/06/25 07:05:43;;;;;;;1.33;0.93;;;21.40;99.90;;;;;;4990472;28;20669;-76
2022/06/25 07:08:08;;;;;;;1.20;1.10;;;21.50;99.90;;;;;;4990122;28;20185;-75
2022/06/25 07:10:34;;;;;;;2.33;1.00;;;21.60;99.90;;;;;;4989923;28;20257;-74
2022/06/25 07:13:00;;;;;;;1.00;0.83;;;21.60;99.90;;;;;;4988339;28;20243;-74
2022/06/25 07:15:25;;;;;;;3.07;1.17;;;21.60;99.90;;;;;;4989892;28;20216;-74
2022/06/25 07:17:51;;;;;;;1.10;1.00;;;21.70;99.90;;;;;;4988385;28;20213;-75
2022/06/25 07:20:17;;;;;;;1.90;0.97;;;21.70;99.90;;;;;;4989943;28;20598;-74
2022/06/25 07:22:42;;;;;;;2.10;1.00;;;21.60;99.90;;;;;;4990375;28;20182;-74
2022/06/25 07:25:08;;;;;;;3.53;1.03;;;21.60;99.90;;;;;;4989041;28;20987;-74
2022/06/25 07:27:34;;;;;;;2.73;1.10;;;21.70;99.90;;;;;;4990722;28;20206;-74
2022/06/25 07:29:59;;;;;;;1.57;1.17;;;21.70;99.90;;;;;;4990028;28;20474;-74
2022/06/25 07:32:25;;;;;;;1.63;1.00;;;21.60;99.90;;;;;;4990082;28;20200;-74
2022/06/25 07:34:51;;;;;;;1.00;0.90;;;21.50;99.90;;;;;;4990095;28;20209;-74
2022/06/25 07:37:16;;;;;;;3.27;1.30;;;21.40;99.90;;;;;;4990343;28;20216;-74
2022/06/25 07:39:42;;;;;;;1.93;1.00;;;21.40;99.90;;;;;;4991761;28;20236;-74
2022/06/25 07:42:08;;;;;;;3.93;1.53;;;21.50;99.90;;;;;;4990827;28;20417;-74
2022/06/25 07:44:34;;;;;;;2.00;1.50;;;21.50;99.90;;;;;;4988598;28;20205;-74
2022/06/25 07:47:00;;;;;;;3.27;1.10;;;21.50;99.90;;;;;;4988734;28;20804;-74
2022/06/25 07:49:25;;;;;;;2.87;1.30;;;21.50;99.90;;;;;;4990457;28;20205;-74
2022/06/25 07:51:57;;;;;;;1.67;1.20;;;21.50;99.90;;;;;;4990455;28;20184;-74
2022/06/25 07:54:28;;;;;;;3.17;1.30;;;21.70;99.90;;;;;;4990333;28;20202;-74
2022/06/25 07:56:54;;;;;;;1.67;1.20;;;22.00;99.90;;;;;;5004902;28;20504;-74
2022/06/25 07:59:20;;;;;;;1.43;1.23;;;22.10;99.90;;;;;;4989884;28;20886;-74
2022/06/25 08:01:46;;;;;;;1.40;1.30;;;22.30;99.90;;;;;;4989712;28;20425;-75
2022/06/25 08:04:12;;;;;;;5.63;2.00;;;22.30;99.90;;;;;;4989605;28;20442;-74
2022/06/25 08:06:41;;;;;;;4.70;1.70;;;22.40;99.90;;;;;;4989849;28;20229;-74
2022/06/25 08:09:07;;;;;;;6.57;1.83;;;22.40;99.90;;;;;;4989865;28;20208;-74
2022/06/25 08:11:33;;;;;;;8.00;1.63;;;22.50;99.90;;;;;;4989876;28;20915;-75
2022/06/25 08:13:59;;;;;;;13.40;2.20;;;22.50;99.90;;;;;;4989928;28;20470;-74
2022/06/25 08:16:25;;;;;;;7.37;1.73;;;22.70;99.90;;;;;;4989893;28;20475;-74
2022/06/25 08:18:51;;;;;;;1.90;1.53;;;22.80;99.90;;;;;;4988593;28;20635;-74
2022/06/25 08:21:18;;;;;;;5.27;1.30;;;22.70;99.90;;;;;;5004886;28;20504;-74
2022/06/25 08:23:43;;;;;;;3.30;1.20;;;22.70;99.90;;;;;;4989942;28;20492;-74
2022/06/25 08:26:09;;;;;;;2.43;1.23;;;22.70;99.90;;;;;;5005082;28;20426;-74
2022/06/25 08:28:35;;;;;;;2.83;1.13;;;22.80;99.90;;;;;;4989928;28;20264;-74
2022/06/25 08:31:00;;;;;;;2.27;1.27;;;22.90;99.90;;;;;;4988731;28;20667;-75
2022/06/25 08:33:26;;;;;;;2.77;1.23;;;23.00;99.90;;;;;;4989974;28;20203;-74
2022/06/25 08:35:52;;;;;;;1.90;1.70;;;23.40;99.90;;;;;;4989628;28;20660;-74
2022/06/25 08:38:18;;;;;;;1.60;1.50;;;23.30;99.90;;;;;;4989833;28;20218;-74
2022/06/25 08:40:43;;;;;;;1.50;1.40;;;23.60;99.90;;;;;;4990083;28;20604;-75
2022/06/25 08:43:09;;;;;;;12.17;1.77;;;23.80;99.90;;;;;;4990160;28;20442;-74
2022/06/25 08:45:35;;;;;;;4.10;1.37;;;24.00;99.90;;;;;;4989878;28;20450;-74
2022/06/25 08:48:01;;;;;;;5.77;1.63;;;24.10;99.90;;;;;;5004624;28;20216;-75
2022/06/25 08:50:27;;;;;;;4.10;1.60;;;24.20;99.90;;;;;;4989721;28;20191;-75
2022/06/25 08:52:55;;;;;;;3.23;1.73;;;24.30;99.90;;;;;;4988773;28;20444;-75
2022/06/25 08:55:38;;;;;;;3.80;1.67;;;24.30;99.90;;;;;;4995017;28;20438;-74
2022/06/25 08:58:05;;;;;;;1.50;1.40;;;24.40;99.90;;;;;;4991859;28;20889;-75
2022/06/25 09:00:33;;;;;;;3.07;1.90;;;24.50;99.90;;;;;;4993564;28;20457;-75
2022/06/25 09:03:00;;;;;;;2.53;1.73;;;24.50;99.90;;;;;;4991577;28;20460;-75
2022/06/25 09:05:30;;;;;;;3.00;1.60;;;24.80;99.90;;;;;;5007897;28;20455;-75
2022/06/25 09:07:58;;;;;;;3.87;1.70;;;24.90;99.90;;;;;;4992958;28;20431;-75
2022/06/25 09:10:25;;;;;;;5.10;1.63;;;25.00;99.90;;;;;;4993455;28;20423;-75
2022/06/25 09:12:53;;;;;;;3.87;1.43;;;25.10;99.90;;;;;;4993807;28;20516;-74
2022/06/25 09:15:23;;;;;;;4.93;1.47;;;24.70;99.90;;;;;;4994011;28;20452;-75
2022/06/25 09:17:52;;;;;;;3.50;1.67;;;24.30;99.90;;;;;;4992087;28;20471;-75
2022/06/25 09:20:19;;;;;;;1.40;1.27;;;24.30;99.90;;;;;;4993446;28;20506;-74
2022/06/25 09:22:57;;;;;;;8.20;1.40;;;24.70;99.90;;;;;;4993223;28;20550;-74
2022/06/25 09:25:24;;;;;;;1.77;1.67;;;25.10;99.90;;;;;;4992804;28;20439;-75
2022/06/25 09:27:50;;;;;;;1.97;1.57;;;25.10;99.90;;;;;;4991231;28;20457;-74
2022/06/25 09:30:19;;;;;;;2.27;1.60;;;24.80;99.90;;;;;;4992289;28;20427;-74
2022/06/25 09:32:50;;;;;;;1.40;1.30;;;24.90;99.90;;;;;;4992219;28;20192;-75
2022/06/25 09:35:37;;;;;;;1.43;1.33;;;24.80;99.90;;;;;;4990390;28;20452;-75
2022/06/25 09:38:06;;;;;;;1.63;1.40;;;25.40;99.90;;;;;;4991737;28;20467;-74
2022/06/25 09:40:33;;;;;;;3.23;1.50;;;25.50;99.90;;;;;;4992070;28;20932;-75
2022/06/25 09:43:00;;;;;;;4.60;1.67;;;26.00;99.90;;;;;;4991909;28;20412;-75
2022/06/25 09:45:26;;;;;;;4.60;1.67;;;25.80;98.80;;;;;;4991793;28;21012;-75
2022/06/25 09:47:54;;;;;;;2.67;1.30;;;25.90;97.40;;;;;;4991901;28;20425;-75
2022/06/25 09:50:20;;;;;;;1.60;1.40;;;26.00;96.00;;;;;;4990151;28;20434;-75
2022/06/25 09:52:59;;;;;;;1.77;1.30;;;26.50;96.80;;;;;;5006676;28;20431;-76
2022/06/25 09:55:28;;;;;;;3.70;1.47;;;26.90;97.40;;;;;;4992347;28;20255;-76
2022/06/25 09:57:54;;;;;;;3.43;1.30;;;27.30;97.80;;;;;;5012922;28;20695;-73
2022/06/25 10:00:21;;;;;;;3.00;1.73;;;27.70;95.10;;;;;;5000800;28;20792;-75
2022/06/25 10:02:48;;;;;;;7.47;1.60;;;27.60;92.90;;;;;;4991312;28;20565;-76
2022/06/25 10:05:18;;;;;;;1.40;1.10;;;27.00;94.90;;;;;;4992413;28;20448;-75
2022/06/25 10:08:00;;;;;;;1.80;1.47;;;26.40;95.50;;;;;;4992235;28;20507;-75
2022/06/25 10:10:48;;;;;;;9.70;1.63;;;26.00;95.90;;;;;;4992047;28;21129;-76
2022/06/25 10:13:14;;;;;;;2.30;2.07;;;25.70;94.90;;;;;;4991342;28;21023;-75
2022/06/25 10:15:39;;;;;;;2.23;1.60;;;26.30;98.20;;;;;;4991695;28;20512;-75
2022/06/25 10:18:09;;;;;;;4.73;1.40;;;26.70;96.70;;;;;;4989722;28;20221;-75
2022/06/25 10:20:36;;;;;;;1.47;1.00;;;26.90;95.40;;;;;;4989916;28;20185;-76
2022/06/25 10:23:04;;;;;;;1.30;1.20;;;27.30;95.50;;;;;;4991092;28;20420;-75
2022/06/25 10:25:31;;;;;;;1.60;1.20;;;27.30;94.60;;;;;;4989565;28;20444;-76
2022/06/25 10:28:12;;;;;;;2.80;1.47;;;26.90;91.40;;;;;;4989633;28;20437;-76
2022/06/25 10:30:47;;;;;;;2.07;1.30;;;27.30;94.60;;;;;;4991113;28;20432;-76
2022/06/25 10:33:18;;;;;;;3.30;1.30;;;28.00;96.60;;;;;;4990931;28;20448;-75
2022/06/25 10:35:47;;;;;;;2.60;1.47;;;27.90;92.10;;;;;;4989200;28;20443;-76
2022/06/25 10:38:23;;;;;;;2.70;1.83;;;27.40;93.00;;;;;;5005554;28;20546;-76
2022/06/25 10:40:51;;;;;;;2.07;1.10;;;27.50;92.50;;;;;;5005575;28;20479;-76
2022/06/25 10:43:36;;;;;;;1.20;0.90;;;28.10;93.20;;;;;;4990667;28;20797;-76
2022/06/25 10:46:23;;;;;;;1.83;1.07;;;28.30;89.30;;;;;;4989140;28;20425;-76
2022/06/25 10:49:18;;;;;;;8.03;1.57;;;28.60;85.00;;;;;;4990718;28;20424;-75
2022/06/25 10:51:45;;;;;;;1.40;1.20;;;28.10;90.70;;;;;;4988967;28;20467;-76
2022/06/25 10:54:35;;;;;;;1.50;1.00;;;28.40;92.10;;;;;;4990448;28;20927;-76
2022/06/25 10:57:01;;;;;;;1.77;1.07;;;28.70;87.80;;;;;;4990235;28;20992;-76
2022/06/25 10:59:34;;;;;;;1.50;1.30;;;28.30;89.70;;;;;;5005100;28;20440;-76
2022/06/25 11:02:11;;;;;;;1.20;1.10;;;28.30;86.20;;;;;;4990355;28;20421;-76
2022/06/25 11:04:38;;;;;;;1.70;1.30;;;28.10;83.90;;;;;;5005089;28;20447;-76
2022/06/25 11:07:13;;;;;;;1.03;0.93;;;27.80;84.20;;;;;;4990220;28;20463;-75
2022/06/25 11:09:40;;;;;;;1.03;0.93;;;27.20;90.30;;;;;;4990028;28;21306;-75
2022/06/25 11:12:06;;;;;;;2.50;1.00;;;27.30;90.20;;;;;;4990213;28;20431;-76
2022/06/25 11:14:32;;;;;;;1.60;1.00;;;27.80;90.80;;;;;;4988575;28;20543;-75
2022/06/25 11:17:10;;;;;;;1.57;1.07;;;28.10;84.30;;;;;;5004030;28;20469;-76
2022/06/25 11:19:37;;;;;;;1.10;1.00;;;28.20;86.30;;;;;;4988751;28;20475;-75
2022/06/25 11:22:03;;;;;;;1.03;0.93;;;28.40;85.90;;;;;;4990263;28;21070;-75
2022/06/25 11:24:30;;;;;;;4.00;1.23;;;27.90;81.00;;;;;;5005411;28;20777;-75
2022/06/25 11:29:52;;;;;;;2.03;1.17;;;27.50;89.40;;;;;;4990781;28;20478;-75
2022/06/25 11:32:26;;;;;;;1.20;0.90;;;27.50;85.80;;;;;;5005151;28;20429;-76
2022/06/25 11:35:00;;;;;;;2.93;0.93;;;28.20;86.70;;;;;;4989190;28;20448;-76
2022/06/25 11:37:27;;;;;;;1.83;1.50;;;28.60;81.00;;;;;;4988901;28;21033;-75
2022/06/25 11:39:53;;;;;;;2.03;1.03;;;28.50;86.30;;;;;;4990431;28;20435;-75
2022/06/25 11:42:19;;;;;;;3.23;1.20;;;28.30;87.00;;;;;;5005245;28;20421;-75
2022/06/25 11:44:46;;;;;;;1.03;0.90;;;28.10;83.00;;;;;;4990917;28;20842;-75
2022/06/25 11:47:13;;;;;;;1.20;0.90;;;28.30;83.70;;;;;;4989129;28;20451;-75
2022/06/25 11:49:41;;;;;;;1.10;1.00;;;28.80;89.00;;;;;;4991128;28;20420;-76
2022/06/25 11:52:08;;;;;;;1.00;0.83;;;29.20;81.70;;;;;;4990350;28;20513;-76
2022/06/25 11:54:36;;;;;;;1.40;0.90;;;29.60;78.30;;;;;;4990144;28;20875;-76
2022/06/25 11:57:07;;;;;;;1.27;1.03;;;29.70;76.90;;;;;;4990009;28;20500;-76
2022/06/25 11:59:36;;;;;;;1.13;1.00;;;29.80;77.10;;;;;;4989847;28;20423;-75
2022/06/25 12:02:04;;;;;;;3.07;1.20;;;28.90;76.30;;;;;;4989841;28;20448;-75
2022/06/25 12:04:31;;;;;;;1.57;1.10;;;27.90;75.50;;;;;;4989823;28;20445;-76
2022/06/25 12:06:59;;;;;;;1.40;1.00;;;28.00;80.10;;;;;;4972170;28;20475;-75
2022/06/25 12:09:25;;;;;;;3.47;0.80;;;28.00;77.90;;;;;;4989800;28;20427;-76
2022/06/25 12:11:51;;;;;;;2.10;1.00;;;28.30;77.20;;;;;;4989609;28;20421;-76
2022/06/25 12:14:28;;;;;;;1.70;1.10;;;28.10;74.60;;;;;;4987816;28;20484;-75
2022/06/25 12:16:54;;;;;;;1.10;1.00;;;28.20;77.20;;;;;;5004856;28;20852;-75
2022/06/25 12:19:21;;;;;;;3.13;1.27;;;28.80;80.40;;;;;;4989701;28;20408;-75
2022/06/25 12:21:48;;;;;;;4.20;1.27;;;29.60;80.50;;;;;;4989435;28;20476;-76
2022/06/25 12:24:15;;;;;;;1.50;1.20;;;29.50;79.20;;;;;;4989263;28;20429;-76
2022/06/25 12:26:49;;;;;;;1.77;1.50;;;29.00;80.90;;;;;;4989130;28;20914;-75
2022/06/25 12:29:19;;;;;;;1.67;1.23;;;28.50;81.60;;;;;;4992993;28;20992;-76
2022/06/25 12:31:58;;;;;;;2.07;1.40;;;28.00;81.10;;;;;;4993092;28;20447;-76
2022/06/25 12:34:25;;;;;;;3.83;1.67;;;27.50;83.90;;;;;;4992886;28;20487;-76
2022/06/25 12:36:52;;;;;;;2.60;1.47;;;27.30;90.40;;;;;;4992913;28;20461;-76
2022/06/25 12:39:31;;;;;;;5.67;1.27;;;27.90;88.20;;;;;;4992906;28;20508;-76
2022/06/25 12:42:02;;;;;;;2.30;1.63;;;28.40;83.60;;;;;;4993012;28;20417;-76
2022/06/25 12:44:33;;;;;;;1.90;1.70;;;28.90;82.10;;;;;;4992669;28;20527;-76
2022/06/25 12:47:04;;;;;;;1.20;1.10;;;29.50;84.80;;;;;;4991204;28;20425;-76
2022/06/25 12:49:59;;;;;;;1.47;1.20;;;29.70;83.30;;;;;;4991045;28;20925;-76
2022/06/25 12:52:35;;;;;;;2.00;1.23;;;30.00;81.60;;;;;;4979647;28;20942;-76
2022/06/25 12:55:01;;;;;;;1.20;1.03;;;30.30;82.00;;;;;;4992577;28;21043;-76
2022/06/25 12:57:29;;;;;;;1.57;1.30;;;30.40;79.80;;;;;;4992456;28;20469;-76